createdAt,value
2022-08-21T00:00:43.910Z,100389.75
2022-08-21T00:03:47.006Z,100396.53
2022-08-21T00:06:50.390Z,100397.16
2022-08-21T00:09:53.643Z,100402.09
2022-08-21T00:12:56.236Z,100407.78
2022-08-21T00:15:59.149Z,100406.56
2022-08-21T00:19:01.535Z,100411.56
2022-08-21T00:22:04.324Z,100409.63
2022-08-21T00:25:07.752Z,100417.50
2022-08-21T00:28:10.557Z,100405.69
2022-08-21T00:31:13.233Z,100409.78
2022-08-21T00:34:16.194Z,100404.53
2022-08-21T00:37:19.574Z,100395.63
2022-08-21T00:40:27.207Z,100397.47
2022-08-21T00:43:39.247Z,100389.75
2022-08-21T00:46:42.801Z,100387.13
2022-08-21T00:49:45.291Z,100375.69
2022-08-21T00:52:48.268Z,100378.47
2022-08-21T00:55:52.302Z,100377.06
2022-08-21T00:58:56.033Z,100376.47
2022-08-21T01:01:58.441Z,100380.41
2022-08-21T01:05:01.251Z,100365.63
2022-08-21T01:08:04.975Z,100374.56
2022-08-21T01:11:07.505Z,100370.44
2022-08-21T01:14:13.256Z,100373.72
2022-08-21T01:17:16.709Z,100365.09
2022-08-21T01:20:19.323Z,100359.84
2022-08-21T01:23:21.843Z,100357.72
2022-08-21T01:26:38.273Z,100351.84
2022-08-21T01:29:52.866Z,100349.41
2022-08-21T01:32:55.576Z,100343.97
2022-08-21T01:35:58.276Z,100345.16
2022-08-21T01:39:06.996Z,100340.63
2022-08-21T01:42:10.213Z,100340.28
2022-08-21T01:45:13.288Z,100337.41
2022-08-21T01:48:15.924Z,100332.88
2022-08-21T01:51:18.355Z,100332.88
2022-08-21T01:54:21.362Z,100322.97
2022-08-21T01:57:26.245Z,100327.34
2022-08-21T02:00:29.320Z,100321.94
2022-08-21T02:03:35.846Z,100319.28
2022-08-21T02:06:38.868Z,100322.97
2022-08-21T02:09:43.199Z,100326.75
2022-08-21T02:12:45.944Z,100335.84
2022-08-21T02:15:49.555Z,100328.69
2022-08-21T02:18:52.336Z,100319.75
2022-08-21T02:21:55.580Z,100317.88
2022-08-21T02:24:58.054Z,100311.66
2022-08-21T02:28:01.431Z,100306.88
2022-08-21T02:31:04.628Z,100315.06
2022-08-21T02:34:07.070Z,100303.78
2022-08-21T02:37:09.745Z,100304.66
2022-08-21T02:40:12.647Z,100309.50
2022-08-21T02:43:16.440Z,100313.09
2022-08-21T02:46:22.120Z,100309.69
2022-08-21T02:49:24.855Z,100314.22
2022-08-21T02:52:27.209Z,100307.44
2022-08-21T02:55:31.740Z,100300.69
2022-08-21T02:58:41.384Z,100298.91
2022-08-21T03:01:44.055Z,100287.38
2022-08-21T03:04:46.885Z,100279.50
2022-08-21T03:07:49.569Z,100282.91
2022-08-21T03:10:53.346Z,100295.63
2022-08-21T03:13:55.751Z,100294.44
2022-08-21T03:16:58.037Z,100304.22
2022-08-21T03:20:00.840Z,100301.38
2022-08-21T03:23:04.473Z,100292.47
2022-08-21T03:26:15.181Z,100295.25
2022-08-21T03:29:18.504Z,100291.09
2022-08-21T03:32:21.709Z,100296.19
2022-08-21T03:35:24.121Z,100294.31
2022-08-21T03:38:28.083Z,100289.13
2022-08-21T03:41:30.451Z,100287.66
2022-08-21T03:44:33.024Z,100287.16
2022-08-21T03:47:37.440Z,100283.34
2022-08-21T03:50:42.890Z,100277.38
2022-08-21T03:53:46.729Z,100283.88
2022-08-21T03:56:49.441Z,100291.25
2022-08-21T03:59:51.948Z,100290.34
2022-08-21T04:02:54.651Z,100300.97
2022-08-21T04:05:57.372Z,100300.66
2022-08-21T04:08:59.945Z,100300.13
2022-08-21T04:12:02.357Z,100299.53
2022-08-21T04:15:05.750Z,100295.25
2022-08-21T04:18:09.536Z,100295.06
2022-08-21T04:21:13.389Z,100291.09
2022-08-21T04:24:15.753Z,100296.19
2022-08-21T04:27:18.332Z,100303.97
2022-08-21T04:30:27.596Z,100288.09
2022-08-21T04:33:31.489Z,100286.41
2022-08-21T04:36:34.523Z,100295.25
2022-08-21T04:39:37.102Z,100286.16
2022-08-21T04:42:52.249Z,100279.81
2022-08-21T04:45:55.816Z,100288.28
2022-08-21T04:48:58.013Z,100289.38
2022-08-21T04:52:00.954Z,100291.81
2022-08-21T04:55:03.692Z,100292.38
2022-08-21T04:58:14.995Z,100282.16
2022-08-21T05:01:21.739Z,100289.16
2022-08-21T05:04:27.694Z,100296.00
2022-08-21T05:07:42.446Z,100290.34
2022-08-21T05:10:45.923Z,100287.53
2022-08-21T05:13:48.103Z,100298.63
2022-08-21T05:16:57.524Z,100300.03
2022-08-21T05:19:59.858Z,100297.50
2022-08-21T05:23:08.622Z,100294.34
2022-08-21T05:26:18.033Z,100296.38
2022-08-21T05:29:21.646Z,100289.06
2022-08-21T05:32:25.598Z,100292.00
2022-08-21T05:35:29.704Z,100285.31
2022-08-21T05:38:32.399Z,100277.75
2022-08-21T05:41:35.529Z,100288.28
2022-08-21T05:44:38.010Z,100292.06
2022-08-21T05:47:40.716Z,100285.03
2022-08-21T05:50:43.985Z,100293.28
2022-08-21T05:53:47.372Z,100295.94
2022-08-21T05:56:49.906Z,100294.13
2022-08-21T05:59:52.736Z,100302.97
2022-08-21T06:02:54.989Z,100300.69
2022-08-21T06:05:58.132Z,100296.03
2022-08-21T06:12:09.702Z,100300.78
2022-08-21T06:15:12.195Z,100298.41
2022-08-21T06:18:14.913Z,100307.91
2022-08-21T06:21:17.318Z,100308.47
2022-08-21T06:24:19.765Z,100307.25
2022-08-21T06:27:26.159Z,100300.69
2022-08-21T06:33:46.167Z,100297.69
2022-08-21T06:36:48.608Z,100306.56
2022-08-21T06:39:51.604Z,100300.53
2022-08-21T06:42:55.288Z,100296.16
2022-08-21T06:45:58.085Z,100291.66
2022-08-21T06:49:00.874Z,100307.25
2022-08-21T06:52:04.150Z,100307.03
2022-08-21T06:55:11.328Z,100311.16
2022-08-21T06:58:16.283Z,100314.44
2022-08-21T07:01:20.708Z,100308.78
2022-08-21T07:04:28.686Z,100308.66
2022-08-21T07:07:31.609Z,100304.03
2022-08-21T07:10:33.989Z,100301.84
2022-08-21T07:13:37.202Z,100303.94
2022-08-21T07:16:45.610Z,100307.66
2022-08-21T07:19:48.909Z,100307.38
2022-08-21T07:22:52.038Z,100286.09
2022-08-21T07:25:55.235Z,100302.78
2022-08-21T07:28:57.927Z,100297.34
2022-08-21T07:32:00.647Z,100311.72
2022-08-21T07:35:04.203Z,100294.34
2022-08-21T07:38:07.322Z,100293.69
2022-08-21T07:41:26.866Z,100289.34
2022-08-21T07:44:29.666Z,100286.75
2022-08-21T07:47:41.777Z,100282.88
2022-08-21T07:50:45.372Z,100275.88
2022-08-21T07:53:55.865Z,100268.16
2022-08-21T07:56:58.477Z,100265.00
2022-08-21T08:00:00.984Z,100268.88
2022-08-21T08:03:14.580Z,100275.19
2022-08-21T08:06:24.276Z,100271.91
2022-08-21T08:09:28.300Z,100277.81
2022-08-21T08:12:31.493Z,100264.75
2022-08-21T08:15:37.517Z,100266.94
2022-08-21T08:18:40.387Z,100257.88
2022-08-21T08:21:43.094Z,100259.81
2022-08-21T08:24:45.967Z,100252.59
2022-08-21T08:27:48.838Z,100261.75
2022-08-21T08:30:52.565Z,100264.34
2022-08-21T08:33:55.447Z,100262.16
2022-08-21T08:36:59.669Z,100264.88
2022-08-21T08:40:04.614Z,100256.91
2022-08-21T08:43:08.027Z,100266.16
2022-08-21T08:46:15.178Z,100260.00
2022-08-21T08:49:24.092Z,100264.28
2022-08-21T08:52:34.809Z,100260.38
2022-08-21T08:55:46.001Z,100259.41
2022-08-21T08:58:51.554Z,100259.81
2022-08-21T09:01:54.017Z,100262.13
2022-08-21T09:04:57.386Z,100256.91
2022-08-21T09:08:18.687Z,100253.28
2022-08-21T09:11:29.727Z,100255.28
2022-08-21T09:14:48.975Z,100254.50
2022-08-21T09:18:30.578Z,100253.47
2022-08-21T09:22:01.614Z,100250.28
2022-08-21T09:25:09.720Z,100247.16
2022-08-21T09:28:15.260Z,100253.63
2022-08-21T09:31:33.716Z,100242.03
2022-08-21T09:34:37.255Z,100252.28
2022-08-21T09:38:08.507Z,100248.00
2022-08-21T09:41:11.473Z,100253.19
2022-08-21T09:44:14.124Z,100243.50
2022-08-21T09:47:26.579Z,100248.00
2022-08-21T09:50:30.175Z,100241.91
2022-08-21T09:53:36.293Z,100248.94
2022-08-21T09:57:10.885Z,100240.28
2022-08-21T10:00:24.139Z,100248.28
2022-08-21T10:03:27.046Z,100240.47
2022-08-21T10:06:30.115Z,100242.03
2022-08-21T10:09:33.650Z,100236.66
2022-08-21T10:12:42.196Z,100232.31
2022-08-21T10:16:09.311Z,100231.88
2022-08-21T10:19:32.954Z,100231.75
2022-08-21T10:22:45.368Z,100231.69
2022-08-21T10:26:13.267Z,100223.38
2022-08-21T10:29:55.227Z,100224.72
2022-08-21T10:33:03.800Z,100225.28
2022-08-21T10:36:32.446Z,100224.22
2022-08-21T10:39:37.235Z,100222.09
2022-08-21T10:42:52.842Z,100221.22
2022-08-21T10:46:04.465Z,100217.75
2022-08-21T10:49:49.149Z,100222.09
2022-08-21T10:53:10.736Z,100225.56
2022-08-21T10:56:19.761Z,100209.25
2022-08-21T11:03:37.593Z,100228.47
2022-08-21T11:06:45.928Z,100220.69
2022-08-21T11:09:50.438Z,100219.78
2022-08-21T11:13:01.635Z,100222.28
2022-08-21T11:16:08.801Z,100218.38
2022-08-21T11:19:19.124Z,100216.25
2022-08-21T11:23:15.799Z,100212.09
2022-08-21T11:27:01.977Z,100214.44
2022-08-21T11:30:15.118Z,100207.75
2022-08-21T11:33:49.454Z,100201.66
2022-08-21T11:37:40.991Z,100203.16
2022-08-21T11:41:10.122Z,100198.97
2022-08-21T11:45:01.570Z,100207.53
2022-08-21T11:48:10.157Z,100206.59
2022-08-21T11:51:17.923Z,100211.19
2022-08-21T11:55:04.648Z,100201.41
2022-08-21T11:58:29.876Z,100205.41
2022-08-21T12:01:36.169Z,100208.69
2022-08-21T12:04:47.072Z,100210.56
2022-08-21T12:07:49.569Z,100208.81
2022-08-21T12:11:16.809Z,100202.03
2022-08-21T12:14:21.950Z,100203.44
2022-08-21T12:17:37.619Z,100203.75
2022-08-21T12:20:50.399Z,100190.50
2022-08-21T12:24:15.420Z,100190.41
2022-08-21T12:27:28.135Z,100187.94
2022-08-21T12:30:30.560Z,100193.47
2022-08-21T12:33:39.354Z,100185.97
2022-08-21T12:36:53.698Z,100181.03
2022-08-21T12:39:59.401Z,100187.06
2022-08-21T12:43:04.092Z,100182.13
2022-08-21T12:46:07.038Z,100198.63
2022-08-21T12:49:17.034Z,100189.38
2022-08-21T12:53:06.513Z,100195.91
2022-08-21T12:56:27.466Z,100199.28
2022-08-21T12:59:31.186Z,100189.28
2022-08-21T13:02:43.746Z,100180.69
2022-08-21T13:05:47.843Z,100185.44
2022-08-21T13:08:57.471Z,100182.38
2022-08-21T13:12:01.038Z,100187.13
2022-08-21T13:15:08.777Z,100179.22
2022-08-21T13:18:23.584Z,100186.16
2022-08-21T13:21:35.469Z,100179.94
2022-08-21T13:24:43.369Z,100177.25
2022-08-21T13:28:07.257Z,100174.75
2022-08-21T13:31:15.396Z,100169.06
2022-08-21T13:34:20.490Z,100184.84
2022-08-21T13:37:24.242Z,100189.75
2022-08-21T13:40:37.386Z,100180.09
2022-08-21T13:43:47.317Z,100181.19
2022-08-21T13:46:57.909Z,100182.84
2022-08-21T13:50:08.967Z,100181.84
2022-08-21T13:53:45.710Z,100179.44
2022-08-21T13:56:48.420Z,100170.75
2022-08-21T13:59:50.986Z,100184.59
2022-08-21T14:02:55.871Z,100184.78
2022-08-21T14:06:00.325Z,100178.28
2022-08-21T14:09:15.006Z,100182.59
2022-08-21T14:12:27.674Z,100180.41
2022-08-21T14:15:32.981Z,100177.59
2022-08-21T14:18:48.021Z,100182.34
2022-08-21T14:21:50.680Z,100184.34
2022-08-21T14:25:06.983Z,100189.53
2022-08-21T14:41:22.814Z,100194.13
2022-08-21T14:49:10.289Z,100184.63
2022-08-21T14:52:13.979Z,100177.59
2022-08-21T14:55:19.970Z,100178.59
2022-08-21T14:58:24.032Z,100182.47
2022-08-21T15:01:26.896Z,100175.16
2022-08-21T15:04:30.043Z,100170.81
2022-08-21T15:25:07.536Z,100180.25
2022-08-21T15:33:11.838Z,100179.22
2022-08-21T16:02:10.345Z,100172.56
2022-08-21T16:42:13.602Z,100227.78
2022-08-21T16:45:18.507Z,100234.16
2022-08-21T16:48:21.474Z,100226.63
2022-08-21T16:51:50.847Z,100237.56
2022-08-21T16:54:57.778Z,100243.63
2022-08-21T16:58:02.026Z,100244.00
2022-08-21T17:01:11.079Z,100249.97
2022-08-21T17:04:13.868Z,100241.44
2022-08-21T17:07:16.301Z,100240.19
2022-08-21T17:10:19.394Z,100248.09
2022-08-21T17:13:21.810Z,100251.59
2022-08-21T17:16:27.452Z,100250.13
2022-08-21T17:19:30.762Z,100247.84
2022-08-21T17:22:39.165Z,100252.56
2022-08-21T17:46:47.190Z,100256.06
2022-08-21T17:49:49.909Z,100250.97
2022-08-21T17:54:03.460Z,100261.06
2022-08-21T18:03:52.061Z,100274.06
2022-08-21T18:06:55.924Z,100276.06
2022-08-21T18:10:00.179Z,100266.47
2022-08-21T18:13:06.191Z,100279.00
2022-08-21T18:34:40.360Z,100283.53
2022-08-21T18:37:44.942Z,100298.41
2022-08-21T18:41:17.730Z,100297.31
2022-08-21T18:48:43.673Z,100287.09
2022-08-21T18:51:47.356Z,100284.34
2022-08-21T18:54:49.591Z,100294.22
2022-08-21T18:57:57.251Z,100299.06
2022-08-21T19:00:59.721Z,100297.38
2022-08-21T19:04:03.152Z,100306.00
2022-08-21T19:07:05.368Z,100303.13
2022-08-21T19:10:27.674Z,100307.47
2022-08-21T19:13:31.894Z,100300.13
2022-08-21T19:16:34.489Z,100299.97
2022-08-21T19:19:39.443Z,100303.25
2022-08-21T19:22:42.303Z,100302.44
2022-08-21T19:26:06.804Z,100313.69
2022-08-21T19:29:10.191Z,100309.78
2022-08-21T19:32:12.776Z,100306.09
2022-08-21T19:35:17.594Z,100304.72
2022-08-21T19:38:20.412Z,100317.69
2022-08-21T19:41:27.966Z,100318.16
2022-08-21T19:44:31.022Z,100312.63
2022-08-21T19:47:33.895Z,100306.41
2022-08-21T19:50:37.184Z,100316.66
2022-08-21T19:53:39.757Z,100307.97
2022-08-21T19:56:42.078Z,100323.16
2022-08-21T19:59:45.705Z,100322.41
2022-08-21T20:02:48.437Z,100321.59
2022-08-21T20:05:50.794Z,100325.63
2022-08-21T20:08:56.873Z,100326.03
2022-08-21T20:12:09.181Z,100330.47
2022-08-21T20:15:12.441Z,100337.22
2022-08-21T20:18:18.844Z,100328.50
2022-08-21T20:21:20.969Z,100325.44
2022-08-21T20:24:27.402Z,100337.13
2022-08-21T20:27:30.074Z,100328.31
2022-08-21T20:30:33.346Z,100336.88
2022-08-21T20:33:36.092Z,100337.38
2022-08-21T20:36:38.521Z,100334.41
2022-08-21T20:39:41.154Z,100335.66
2022-08-21T20:42:50.174Z,100334.53
2022-08-21T20:45:52.575Z,100331.94
2022-08-21T20:48:55.790Z,100336.28
2022-08-21T20:51:59.841Z,100337.16
2022-08-21T20:55:14.894Z,100336.16
2022-08-21T20:58:33.702Z,100341.34
2022-08-21T21:01:36.701Z,100334.00
2022-08-21T21:04:51.683Z,100334.03
2022-08-21T21:08:20.631Z,100326.63
2022-08-21T21:11:34.460Z,100332.72
2022-08-21T21:14:46.677Z,100331.38
2022-08-21T21:18:07.746Z,100325.50
2022-08-21T21:21:36.172Z,100322.09
2022-08-21T21:25:00.740Z,100336.81
2022-08-21T21:28:36.390Z,100331.25
2022-08-21T21:31:56.537Z,100336.72
2022-08-21T21:35:32.765Z,100332.50
